createdAt,value
2023-03-12T00:02:12.622Z,5.20
2023-03-12T00:04:40.670Z,6.20
2023-03-12T00:07:08.307Z,6.10
2023-03-12T00:09:38.682Z,5.90
2023-03-12T00:12:08.620Z,6.90
2023-03-12T00:14:35.538Z,6.50
2023-03-12T00:17:02.295Z,8.90
2023-03-12T00:19:29.552Z,5.70
2023-03-12T00:21:57.835Z,6.30
2023-03-12T00:24:26.824Z,7.30
2023-03-12T00:26:54.474Z,6.50
2023-03-12T00:29:21.219Z,6.00
2023-03-12T00:31:47.897Z,6.20
2023-03-12T00:34:14.745Z,5.90
2023-03-12T00:36:41.410Z,5.20
2023-03-12T00:39:10.667Z,6.10
2023-03-12T00:41:47.177Z,5.90
2023-03-12T00:44:13.869Z,5.70
2023-03-12T00:46:40.542Z,4.90
2023-03-12T00:49:07.226Z,5.00
2023-03-12T00:51:33.850Z,5.70
2023-03-12T00:54:00.728Z,5.80
2023-03-12T00:56:27.409Z,5.20
2023-03-12T00:58:54.241Z,4.80
2023-03-12T01:01:20.884Z,4.70
2023-03-12T01:03:50.858Z,6.20
2023-03-12T01:06:18.245Z,3.10
2023-03-12T01:08:45.978Z,3.20
2023-03-12T01:11:14.186Z,2.90
2023-03-12T01:13:40.907Z,2.40
2023-03-12T01:16:07.677Z,2.10
2023-03-12T01:18:34.522Z,2.40
2023-03-12T01:21:01.807Z,1.00
2023-03-12T01:23:28.922Z,1.70
2023-03-12T01:25:55.854Z,1.70
2023-03-12T01:28:23.309Z,1.30
2023-03-12T01:30:50.142Z,1.70
2023-03-12T01:33:17.942Z,2.90
2023-03-12T01:35:45.396Z,2.60
2023-03-12T01:38:13.473Z,2.10
2023-03-12T01:40:40.381Z,4.40
2023-03-12T01:43:29.586Z,2.50
2023-03-12T01:46:32.387Z,1.70
2023-03-12T01:49:29.215Z,1.60
2023-03-12T01:52:07.418Z,2.00
2023-03-12T01:54:49.564Z,0.70
2023-03-12T01:57:34.868Z,0.90
2023-03-12T02:00:08.348Z,1.70
2023-03-12T02:02:42.169Z,1.30
2023-03-12T02:05:19.489Z,4.00
2023-03-12T02:07:46.559Z,2.30
2023-03-12T02:10:13.913Z,2.50
2023-03-12T02:12:42.269Z,1.30
2023-03-12T02:15:09.441Z,1.30
2023-03-12T02:17:40.310Z,1.00
2023-03-12T02:20:19.403Z,1.10
2023-03-12T02:22:52.353Z,1.60
2023-03-12T02:25:30.866Z,0.70
2023-03-12T02:27:59.157Z,2.30
2023-03-12T02:30:27.788Z,2.20
2023-03-12T02:33:00.105Z,2.00
2023-03-12T02:35:27.288Z,1.50
2023-03-12T02:37:55.263Z,2.40
2023-03-12T02:40:35.926Z,1.40
2023-03-12T02:43:07.379Z,1.40
2023-03-12T02:45:35.742Z,1.40
2023-03-12T02:48:03.169Z,1.60
2023-03-12T02:50:31.961Z,1.20
2023-03-12T02:52:58.562Z,1.00
2023-03-12T02:55:27.197Z,1.10
2023-03-12T02:57:53.913Z,1.70
2023-03-12T03:00:21.143Z,1.50
2023-03-12T03:02:51.419Z,2.10
2023-03-12T03:05:19.931Z,1.40
2023-03-12T03:07:49.331Z,1.10
2023-03-12T03:10:17.810Z,1.40
2023-03-12T03:12:44.557Z,1.50
2023-03-12T03:15:12.245Z,1.80
2023-03-12T03:17:39.874Z,2.00
2023-03-12T03:20:10.675Z,3.50
2023-03-12T03:22:43.540Z,7.30
2023-03-12T03:25:10.569Z,4.20
2023-03-12T03:27:37.140Z,1.90
2023-03-12T03:30:05.862Z,7.40
2023-03-12T03:32:34.206Z,16.40
2023-03-12T03:35:06.005Z,8.00
2023-03-12T03:37:33.746Z,2.20
2023-03-12T03:40:01.193Z,4.80
2023-03-12T03:42:28.156Z,7.50
2023-03-12T03:44:55.483Z,1.90
2023-03-12T03:47:23.225Z,2.60
2023-03-12T03:49:50.070Z,2.10
2023-03-12T03:52:16.816Z,2.00
2023-03-12T03:54:43.956Z,3.40
2023-03-12T03:57:10.798Z,8.60
2023-03-12T03:59:43.731Z,5.50
2023-03-12T04:02:10.806Z,3.60
2023-03-12T04:04:38.143Z,3.80
2023-03-12T04:07:08.606Z,3.20
2023-03-12T04:09:36.478Z,3.30
2023-03-12T04:12:05.400Z,3.90
2023-03-12T04:14:32.733Z,4.20
2023-03-12T04:17:00.109Z,3.70
2023-03-12T04:19:27.223Z,2.90
2023-03-12T04:21:54.072Z,2.80
2023-03-12T04:24:22.018Z,2.30
2023-03-12T04:26:49.188Z,2.80
2023-03-12T04:29:18.115Z,2.90
2023-03-12T04:31:45.580Z,2.50
2023-03-12T04:34:14.402Z,2.70
2023-03-12T04:36:41.807Z,2.20
2023-03-12T04:39:08.991Z,2.90
2023-03-12T04:41:36.848Z,3.30
2023-03-12T04:44:10.934Z,2.70
2023-03-12T04:46:39.836Z,3.20
2023-03-12T04:49:07.303Z,3.70
2023-03-12T04:51:34.859Z,3.40
2023-03-12T04:56:09.898Z,3.60
2023-03-12T04:58:38.480Z,2.70
2023-03-12T05:01:07.246Z,3.40
2023-03-12T05:03:35.756Z,3.00
2023-03-12T05:06:05.068Z,3.30
2023-03-12T05:08:41.859Z,3.60
2023-03-12T05:11:13.496Z,3.60
2023-03-12T05:13:42.060Z,3.40
2023-03-12T05:16:11.479Z,2.40
2023-03-12T05:18:43.546Z,3.90
2023-03-12T05:21:14.098Z,3.70
2023-03-12T05:23:43.244Z,2.50
2023-03-12T05:26:19.018Z,4.40
2023-03-12T05:28:47.596Z,2.90
2023-03-12T05:31:16.125Z,3.70
2023-03-12T05:33:44.678Z,2.10
2023-03-12T05:36:13.632Z,3.20
2023-03-12T05:38:42.824Z,3.50
2023-03-12T05:41:31.391Z,3.50
2023-03-12T05:44:03.031Z,2.40
2023-03-12T05:46:32.156Z,3.70
2023-03-12T05:49:00.630Z,5.10
2023-03-12T05:51:29.565Z,3.30
2023-03-12T05:53:57.547Z,12.30
2023-03-12T05:56:25.489Z,5.90
2023-03-12T05:58:53.842Z,5.20
2023-03-12T06:01:27.004Z,15.60
2023-03-12T06:03:56.652Z,10.60
2023-03-12T06:06:26.030Z,5.10
2023-03-12T06:08:55.679Z,4.10
2023-03-12T06:11:23.755Z,3.50
2023-03-12T06:13:52.752Z,4.90
2023-03-12T06:16:22.325Z,4.20
2023-03-12T06:18:58.153Z,2.90
2023-03-12T06:21:35.248Z,2.80
2023-03-12T06:24:05.249Z,2.90
2023-03-12T06:26:49.350Z,2.20
2023-03-12T06:29:17.346Z,1.70
2023-03-12T06:31:45.477Z,3.00
2023-03-12T06:34:14.230Z,3.00
2023-03-12T06:36:42.524Z,3.10
2023-03-12T06:39:10.595Z,3.40
2023-03-12T06:41:41.592Z,2.80
2023-03-12T06:44:10.023Z,3.70
2023-03-12T06:46:42.716Z,2.60
2023-03-12T06:49:11.516Z,2.00
2023-03-12T06:51:39.538Z,3.20
2023-03-12T06:54:08.572Z,2.20
2023-03-12T06:56:37.130Z,2.40
2023-03-12T06:59:06.353Z,1.10
2023-03-12T07:01:35.067Z,2.40
2023-03-12T07:04:03.138Z,2.10
2023-03-12T07:06:31.320Z,3.00
2023-03-12T07:09:05.365Z,1.80
2023-03-12T07:11:36.569Z,1.30
2023-03-12T07:14:04.995Z,1.60
2023-03-12T07:16:36.529Z,2.20
2023-03-12T07:19:05.799Z,2.10
2023-03-12T07:21:34.258Z,3.90
2023-03-12T07:24:08.027Z,3.10
2023-03-12T07:26:36.955Z,3.60
2023-03-12T07:29:05.243Z,2.00
2023-03-12T07:31:33.291Z,1.90
2023-03-12T07:34:03.310Z,2.40
2023-03-12T07:36:36.598Z,1.60
2023-03-12T07:39:04.672Z,2.00
2023-03-12T07:41:32.680Z,2.90
2023-03-12T07:44:00.717Z,3.80
2023-03-12T07:46:29.206Z,2.70
2023-03-12T07:48:57.651Z,2.00
2023-03-12T07:51:25.992Z,2.70
2023-03-12T07:53:54.191Z,4.90
2023-03-12T07:56:22.314Z,3.10
2023-03-12T07:58:50.461Z,3.20
2023-03-12T08:01:18.937Z,3.90
2023-03-12T08:03:47.598Z,5.30
2023-03-12T08:06:16.244Z,3.90
2023-03-12T08:08:44.359Z,2.60
2023-03-12T08:11:12.414Z,3.90
2023-03-12T08:13:42.557Z,2.80
2023-03-12T08:16:14.775Z,2.40
2023-03-12T08:18:44.586Z,2.40
2023-03-12T08:21:16.348Z,6.70
2023-03-12T08:23:45.619Z,6.10
2023-03-12T08:26:15.326Z,2.40
2023-03-12T08:28:43.766Z,4.60
2023-03-12T08:31:12.060Z,2.70
2023-03-12T08:33:43.530Z,2.20
2023-03-12T08:36:11.694Z,3.70
2023-03-12T08:38:40.395Z,2.30
2023-03-12T08:41:08.410Z,2.90
2023-03-12T08:43:36.525Z,3.30
2023-03-12T08:46:06.342Z,6.40
2023-03-12T08:48:34.460Z,3.30
2023-03-12T08:51:04.421Z,3.40
2023-03-12T08:53:35.844Z,4.20
2023-03-12T08:56:04.679Z,3.80
2023-03-12T08:58:32.725Z,2.50
2023-03-12T09:01:00.863Z,3.50
2023-03-12T09:03:29.769Z,3.20
2023-03-12T09:06:05.934Z,2.30
2023-03-12T09:08:36.479Z,3.80
2023-03-12T09:11:05.534Z,2.90
2023-03-12T09:13:54.950Z,4.80
2023-03-12T09:16:22.319Z,6.30
2023-03-12T09:18:51.151Z,5.20
2023-03-12T09:21:22.147Z,2.20
2023-03-12T09:23:50.751Z,2.00
2023-03-12T09:26:19.074Z,5.10
2023-03-12T09:28:49.579Z,3.60
2023-03-12T09:31:17.922Z,2.10
2023-03-12T09:33:45.988Z,2.20
2023-03-12T09:36:14.185Z,2.60
2023-03-12T09:38:42.072Z,2.70
2023-03-12T09:41:27.874Z,3.10
2023-03-12T09:44:04.635Z,3.40
2023-03-12T09:46:41.786Z,4.30
2023-03-12T09:49:46.742Z,6.10
2023-03-12T09:52:22.189Z,3.60
2023-03-12T09:55:23.598Z,3.90
2023-03-12T09:57:51.940Z,3.40
2023-03-12T10:00:21.962Z,4.40
2023-03-12T10:03:05.676Z,2.00
2023-03-12T10:06:04.104Z,2.90
2023-03-12T10:08:57.395Z,4.10
2023-03-12T10:11:55.849Z,4.40
2023-03-12T10:14:43.597Z,3.30
2023-03-12T10:17:27.197Z,4.50
2023-03-12T10:20:03.761Z,4.60
2023-03-12T10:23:11.399Z,4.00
2023-03-12T10:25:48.574Z,3.60
2023-03-12T10:28:22.366Z,3.80
2023-03-12T10:30:54.242Z,5.00
2023-03-12T10:33:26.186Z,3.30
2023-03-12T10:35:54.258Z,6.60
2023-03-12T10:38:28.363Z,2.80
2023-03-12T10:40:56.632Z,4.90
2023-03-12T10:43:25.624Z,3.20
2023-03-12T10:46:22.063Z,4.40
2023-03-12T10:48:52.316Z,3.30
2023-03-12T10:51:20.702Z,3.40
2023-03-12T10:53:51.146Z,4.00
2023-03-12T10:56:19.667Z,5.50
2023-03-12T10:58:51.603Z,2.70
2023-03-12T11:01:22.693Z,5.30
2023-03-12T11:03:51.563Z,3.20
2023-03-12T11:06:29.132Z,3.60
2023-03-12T11:09:16.693Z,3.90
2023-03-12T11:11:47.752Z,3.80
2023-03-12T11:14:23.293Z,3.40
2023-03-12T11:16:52.192Z,4.00
2023-03-12T11:19:33.293Z,3.10
2023-03-12T11:22:08.769Z,2.60
2023-03-12T11:24:37.137Z,3.60
2023-03-12T11:27:07.072Z,4.60
2023-03-12T11:29:41.112Z,5.20
2023-03-12T11:32:30.189Z,4.60
2023-03-12T11:34:58.535Z,4.10
2023-03-12T11:38:01.013Z,3.30
2023-03-12T11:41:00.837Z,5.00
2023-03-12T11:43:43.733Z,4.40
2023-03-12T11:46:21.719Z,4.10
2023-03-12T11:49:22.209Z,3.60
2023-03-12T11:51:53.748Z,3.90
2023-03-12T11:54:43.325Z,6.10
2023-03-12T11:57:40.696Z,2.40
2023-03-12T12:00:18.119Z,4.90
2023-03-12T12:02:55.836Z,3.80
2023-03-12T12:05:27.248Z,3.80
2023-03-12T12:08:04.083Z,3.40
2023-03-12T12:10:52.500Z,2.30
2023-03-12T12:13:38.954Z,5.20
2023-03-12T12:16:23.699Z,4.80
2023-03-12T12:18:54.752Z,5.40
2023-03-12T12:21:48.614Z,3.30
2023-03-12T12:24:22.847Z,3.40
2023-03-12T12:27:19.669Z,3.60
2023-03-12T12:30:01.705Z,3.60
2023-03-12T12:32:52.161Z,4.70
2023-03-12T12:35:36.033Z,3.80
2023-03-12T12:38:07.219Z,3.80
2023-03-12T12:40:42.009Z,3.10
2023-03-12T12:43:16.202Z,4.60
2023-03-12T12:45:44.330Z,5.40
2023-03-12T12:48:30.579Z,6.10
2023-03-12T12:51:02.194Z,5.00
2023-03-12T12:53:47.257Z,2.80
2023-03-12T12:56:34.310Z,3.40
2023-03-12T12:59:25.223Z,5.60
2023-03-12T13:01:55.166Z,3.20
2023-03-12T13:04:34.120Z,6.40
2023-03-12T13:07:12.146Z,5.50
2023-03-12T13:09:41.716Z,3.90
2023-03-12T13:12:27.105Z,3.80
2023-03-12T13:14:57.754Z,6.90
2023-03-12T13:17:28.128Z,5.10
2023-03-12T13:20:08.480Z,7.20
2023-03-12T13:23:05.177Z,8.90
2023-03-12T13:25:52.457Z,8.80
2023-03-12T13:29:05.998Z,4.60
2023-03-12T13:31:41.436Z,4.60
2023-03-12T13:34:15.492Z,4.50
2023-03-12T13:37:07.633Z,7.20
2023-03-12T13:39:36.313Z,6.70
2023-03-12T13:42:22.973Z,6.00
2023-03-12T13:44:52.262Z,5.70
2023-03-12T13:47:26.573Z,7.10
2023-03-12T13:49:58.899Z,7.40
2023-03-12T13:52:33.856Z,9.80
2023-03-12T13:55:03.138Z,7.20
2023-03-12T13:57:40.316Z,8.30
2023-03-12T14:00:18.571Z,7.30
2023-03-12T14:02:57.892Z,8.00
2023-03-12T14:05:26.114Z,7.20
2023-03-12T14:08:15.792Z,9.50
2023-03-12T14:10:52.312Z,9.10
2023-03-12T14:13:29.580Z,8.70
2023-03-12T14:16:17.304Z,7.00
2023-03-12T14:18:47.797Z,8.30
2023-03-12T14:21:17.064Z,6.80
2023-03-12T14:23:54.775Z,6.50
2023-03-12T14:26:34.459Z,6.90
2023-03-12T14:29:05.225Z,7.30
2023-03-12T14:31:35.860Z,6.20
2023-03-12T14:34:20.826Z,5.80
2023-03-12T14:36:57.150Z,9.10
2023-03-12T14:39:55.782Z,6.70
2023-03-12T14:42:29.552Z,5.50
2023-03-12T14:45:19.019Z,8.10
2023-03-12T14:47:59.598Z,6.90
2023-03-12T14:50:36.332Z,8.50
2023-03-12T14:53:26.435Z,6.50
2023-03-12T14:56:09.283Z,7.40
2023-03-12T14:58:46.804Z,7.00
2023-03-12T15:01:30.442Z,8.60
2023-03-12T15:04:03.520Z,7.20
2023-03-12T15:09:07.902Z,4.40
2023-03-12T15:11:40.467Z,3.60
2023-03-12T15:14:15.820Z,4.50
2023-03-12T15:16:46.620Z,6.50
2023-03-12T15:19:17.391Z,6.40
2023-03-12T15:21:50.889Z,5.80
2023-03-12T15:24:19.715Z,7.50
2023-03-12T15:26:48.410Z,6.70
2023-03-12T15:29:41.031Z,6.50
2023-03-12T15:32:18.655Z,10.20
2023-03-12T15:34:50.071Z,9.70
2023-03-12T15:37:36.320Z,7.40
2023-03-12T15:40:20.903Z,7.40
2023-03-12T15:45:40.138Z,8.30
2023-03-12T15:48:35.442Z,9.50
2023-03-12T15:51:11.777Z,10.40
2023-03-12T15:53:40.655Z,8.10
2023-03-12T15:56:12.750Z,6.80
2023-03-12T15:58:41.707Z,7.00
2023-03-12T16:01:12.734Z,7.90
2023-03-12T16:03:45.829Z,6.90
2023-03-12T16:06:32.218Z,7.80
2023-03-12T16:09:06.319Z,10.30
2023-03-12T16:11:36.441Z,9.40
2023-03-12T16:14:08.531Z,5.50
2023-03-12T16:16:37.683Z,8.10
2023-03-12T16:19:16.148Z,7.40
2023-03-12T16:21:44.689Z,9.70
2023-03-12T16:24:16.575Z,6.50
2023-03-12T16:26:50.265Z,6.50
2023-03-12T16:29:18.701Z,6.30
2023-03-12T16:31:57.335Z,7.80
2023-03-12T16:34:25.489Z,7.90
2023-03-12T16:36:53.827Z,5.50
2023-03-12T16:39:23.997Z,6.40
2023-03-12T16:41:52.049Z,4.90
2023-03-12T16:44:21.004Z,5.10
2023-03-12T16:46:49.735Z,6.60
2023-03-12T16:49:20.947Z,4.50
2023-03-12T16:51:50.107Z,4.60
2023-03-12T16:54:18.744Z,4.20
2023-03-12T16:56:48.302Z,4.70
2023-03-12T16:59:25.527Z,5.90
2023-03-12T17:01:53.973Z,3.50
2023-03-12T17:04:23.182Z,3.30
2023-03-12T17:06:51.211Z,3.10
2023-03-12T17:09:20.768Z,2.50
2023-03-12T17:14:18.627Z,2.60
2023-03-12T17:16:52.227Z,4.20
2023-03-12T17:19:20.509Z,4.60
2023-03-12T17:21:50.212Z,6.60
2023-03-12T17:24:28.106Z,7.70
2023-03-12T17:26:58.252Z,7.00
2023-03-12T17:29:27.321Z,4.60
2023-03-12T17:31:55.824Z,4.90
2023-03-12T17:34:30.452Z,5.40
2023-03-12T17:37:03.466Z,3.80
2023-03-12T17:39:35.642Z,6.70
2023-03-12T17:42:04.057Z,3.30
2023-03-12T17:44:39.033Z,3.80
2023-03-12T17:47:07.505Z,4.10
2023-03-12T17:49:41.773Z,4.10
2023-03-12T17:52:16.266Z,6.30
2023-03-12T17:54:55.490Z,4.20
2023-03-12T17:57:35.343Z,5.00
2023-03-12T18:03:09.218Z,4.40
2023-03-12T18:08:52.170Z,5.20
2023-03-12T18:11:28.409Z,4.10
2023-03-12T18:14:04.083Z,6.10
2023-03-12T18:16:36.632Z,7.20
2023-03-12T18:19:12.558Z,3.90
2023-03-12T18:21:43.909Z,7.00
2023-03-12T18:24:14.313Z,8.90
2023-03-12T18:26:49.761Z,8.20
2023-03-12T18:29:18.219Z,3.40
2023-03-12T18:31:46.189Z,4.60
2023-03-12T18:34:14.564Z,7.10
2023-03-12T18:36:44.052Z,7.50
2023-03-12T18:39:12.622Z,6.60
2023-03-12T18:41:42.101Z,10.50
2023-03-12T18:44:13.181Z,6.30
2023-03-12T18:46:43.158Z,8.40
2023-03-12T18:49:15.200Z,5.30
2023-03-12T18:51:43.706Z,5.40
2023-03-12T18:54:13.083Z,6.50
2023-03-12T18:56:41.397Z,7.00
2023-03-12T18:59:32.776Z,5.70
2023-03-12T19:02:01.008Z,5.00
2023-03-12T19:04:30.319Z,7.30
2023-03-12T19:07:00.934Z,8.20
2023-03-12T19:09:30.620Z,5.20
2023-03-12T19:11:59.615Z,6.90
2023-03-12T19:14:29.484Z,8.60
2023-03-12T19:17:00.588Z,7.20
2023-03-12T19:19:29.460Z,6.70
2023-03-12T19:22:00.229Z,6.90
2023-03-12T19:24:29.839Z,5.50
2023-03-12T19:26:58.636Z,9.50
2023-03-12T19:29:26.947Z,5.80
2023-03-12T19:31:55.387Z,5.70
2023-03-12T19:36:56.809Z,4.70
2023-03-12T19:39:25.478Z,6.30
2023-03-12T19:41:54.920Z,5.50
2023-03-12T19:44:23.756Z,3.50
2023-03-12T19:46:52.718Z,4.50
2023-03-12T19:49:21.177Z,4.90
2023-03-12T19:51:49.360Z,5.30
2023-03-12T19:54:19.028Z,5.80
2023-03-12T19:56:47.566Z,4.10
2023-03-12T19:59:19.979Z,6.00
2023-03-12T20:01:48.104Z,5.30
2023-03-12T20:04:18.593Z,4.30
2023-03-12T20:06:47.705Z,3.30
2023-03-12T20:09:16.173Z,2.70
2023-03-12T20:11:47.993Z,3.20
2023-03-12T20:14:18.011Z,3.20
2023-03-12T20:16:46.163Z,1.70
2023-03-12T20:19:15.299Z,3.50
2023-03-12T20:21:47.088Z,3.80
2023-03-12T20:24:18.196Z,4.70
2023-03-12T20:26:46.583Z,3.90
2023-03-12T20:29:14.724Z,3.60
2023-03-12T20:31:48.086Z,4.20
2023-03-12T20:34:17.037Z,3.00
2023-03-12T20:36:47.673Z,3.60
2023-03-12T20:39:17.995Z,5.30
2023-03-12T20:41:46.502Z,3.50
2023-03-12T20:44:14.932Z,4.20
2023-03-12T20:46:42.881Z,5.80
2023-03-12T20:49:11.165Z,4.50
2023-03-12T20:51:46.622Z,2.90
2023-03-12T20:54:15.497Z,3.60
2023-03-12T20:56:44.874Z,3.50
2023-03-12T20:59:13.085Z,4.90
2023-03-12T21:01:43.682Z,2.80
2023-03-12T21:04:11.998Z,4.50
2023-03-12T21:06:42.103Z,3.60
2023-03-12T21:09:10.836Z,3.60
2023-03-12T21:11:40.440Z,2.80
2023-03-12T21:14:08.993Z,2.70
2023-03-12T21:16:42.271Z,2.60
2023-03-12T21:19:10.252Z,2.60
2023-03-12T21:21:40.707Z,2.60
2023-03-12T21:24:09.393Z,2.30
2023-03-12T21:26:38.328Z,1.60
2023-03-12T21:29:06.997Z,2.50
2023-03-12T21:31:36.551Z,3.00
2023-03-12T21:34:05.241Z,4.70
2023-03-12T21:36:34.460Z,1.90
2023-03-12T21:39:03.101Z,2.20
2023-03-12T21:41:31.236Z,2.30
2023-03-12T21:44:05.300Z,3.30
2023-03-12T21:46:34.468Z,2.50
2023-03-12T21:49:03.395Z,1.70
2023-03-12T21:51:31.577Z,2.90
2023-03-12T21:53:59.706Z,1.90
2023-03-12T21:56:29.782Z,2.30
2023-03-12T21:58:58.101Z,2.20
2023-03-12T22:01:26.296Z,4.20
2023-03-12T22:03:54.554Z,2.70
2023-03-12T22:06:25.016Z,4.10
2023-03-12T22:09:00.145Z,4.10
2023-03-12T22:11:29.623Z,5.00
2023-03-12T22:13:57.732Z,2.00
2023-03-12T22:16:27.833Z,2.40
2023-03-12T22:18:56.687Z,2.70
2023-03-12T22:21:24.954Z,2.20
2023-03-12T22:23:53.707Z,2.70
2023-03-12T22:26:23.006Z,3.70
2023-03-12T22:28:53.390Z,3.90
2023-03-12T22:31:22.642Z,4.50
2023-03-12T22:33:50.718Z,5.20
2023-03-12T22:36:19.546Z,4.10
2023-03-12T22:38:52.236Z,3.90
2023-03-12T22:41:27.710Z,4.80
2023-03-12T22:43:57.545Z,4.00
2023-03-12T22:46:29.854Z,5.90
2023-03-12T22:48:59.714Z,4.10
2023-03-12T22:51:29.313Z,6.00
2023-03-12T22:53:58.412Z,5.90
2023-03-12T22:56:27.034Z,4.90
2023-03-12T22:58:56.008Z,4.20
2023-03-12T23:01:24.892Z,5.10
2023-03-12T23:03:56.996Z,3.70
2023-03-12T23:06:27.218Z,4.00
2023-03-12T23:08:55.805Z,6.00
2023-03-12T23:11:25.691Z,3.40
2023-03-12T23:13:54.495Z,3.00
2023-03-12T23:16:24.670Z,3.80
2023-03-12T23:18:56.606Z,3.60
2023-03-12T23:21:25.212Z,7.80
2023-03-12T23:23:54.767Z,2.80
2023-03-12T23:26:26.996Z,3.50
2023-03-12T23:28:58.109Z,3.10
2023-03-12T23:31:28.138Z,3.60
2023-03-12T23:33:59.493Z,3.30
2023-03-12T23:36:32.065Z,2.90
2023-03-12T23:39:00.656Z,2.50
2023-03-12T23:41:29.804Z,1.40
2023-03-12T23:44:02.408Z,1.70
2023-03-12T23:46:31.501Z,1.80
2023-03-12T23:49:00.274Z,2.70
2023-03-12T23:51:31.055Z,2.90
2023-03-12T23:54:05.237Z,3.60
2023-03-12T23:56:35.905Z,2.80
2023-03-12T23:59:05.466Z,5.10
